createdAt,value
2023-08-06T00:01:27.314Z,57352.91
2023-08-06T00:03:54.231Z,57313.22
2023-08-06T00:06:20.992Z,57309.06
2023-08-06T00:08:47.780Z,57313.22
2023-08-06T00:11:14.798Z,57357.06
2023-08-06T00:13:41.645Z,57321.59
2023-08-06T00:16:13.280Z,57380.03
2023-08-06T00:18:40.927Z,57329.94
2023-08-06T00:21:07.672Z,57288.19
2023-08-06T00:23:34.446Z,57309.06
2023-08-06T00:26:01.160Z,57290.28
2023-08-06T00:28:27.830Z,57325.75
2023-08-06T00:30:55.650Z,57277.75
2023-08-06T00:33:26.064Z,57336.19
2023-08-06T00:35:52.855Z,57332.03
2023-08-06T00:38:19.603Z,57286.09
2023-08-06T00:40:46.339Z,57300.72
2023-08-06T00:43:13.074Z,57346.63
2023-08-06T00:45:39.781Z,57306.97
2023-08-06T00:48:07.903Z,57290.28
2023-08-06T00:50:34.790Z,57309.06
2023-08-06T00:53:02.288Z,57309.06
2023-08-06T00:55:29.321Z,57284.00
2023-08-06T00:57:57.678Z,57334.09
2023-08-06T01:00:25.809Z,57319.50
2023-08-06T01:02:54.153Z,57309.06
2023-08-06T01:05:22.741Z,57309.06
2023-08-06T01:08:09.797Z,57325.75
2023-08-06T01:10:51.696Z,57327.84
2023-08-06T01:13:29.223Z,57359.16
2023-08-06T01:15:58.482Z,57334.09
2023-08-06T01:18:25.260Z,57313.22
2023-08-06T01:20:52.102Z,57336.19
2023-08-06T01:23:19.967Z,57334.09
2023-08-06T01:25:53.253Z,57342.47
2023-08-06T01:29:07.193Z,57306.97
2023-08-06T01:31:38.329Z,57317.41
2023-08-06T01:34:09.925Z,57327.84
2023-08-06T01:36:37.240Z,57332.03
2023-08-06T01:39:06.130Z,57388.38
2023-08-06T01:41:32.869Z,57344.53
2023-08-06T01:43:59.582Z,57329.94
2023-08-06T01:46:26.384Z,57275.66
2023-08-06T01:48:53.078Z,57284.00
2023-08-06T01:51:19.833Z,57298.63
2023-08-06T01:53:46.615Z,57336.19
2023-08-06T01:56:13.540Z,57342.47
2023-08-06T01:58:40.308Z,57306.97
2023-08-06T02:01:07.115Z,57281.94
2023-08-06T02:03:33.870Z,57325.75
2023-08-06T02:06:00.581Z,57317.41
2023-08-06T02:08:28.631Z,57317.41
2023-08-06T02:10:55.321Z,57296.53
2023-08-06T02:13:22.006Z,57290.28
2023-08-06T02:15:49.045Z,57311.16
2023-08-06T02:18:16.409Z,57359.16
2023-08-06T02:20:43.746Z,57325.75
2023-08-06T02:23:10.610Z,57290.28
2023-08-06T02:25:37.336Z,57304.88
2023-08-06T02:28:04.210Z,57284.00
2023-08-06T02:30:31.747Z,57298.63
2023-08-06T02:32:58.475Z,57340.38
2023-08-06T02:35:25.246Z,57288.19
2023-08-06T02:37:51.958Z,57294.44
2023-08-06T02:40:18.679Z,57286.09
2023-08-06T02:42:45.316Z,57302.81
2023-08-06T02:45:11.999Z,57313.22
2023-08-06T02:47:38.850Z,57298.63
2023-08-06T02:50:06.135Z,57325.75
2023-08-06T02:52:32.862Z,57340.38
2023-08-06T02:55:01.512Z,57325.75
2023-08-06T02:57:28.305Z,57296.53
2023-08-06T02:59:54.974Z,57350.81
2023-08-06T03:02:21.738Z,57319.50
2023-08-06T03:04:48.450Z,57313.22
2023-08-06T03:07:15.177Z,57361.25
2023-08-06T03:09:41.940Z,57327.84
2023-08-06T03:12:09.005Z,57357.06
2023-08-06T03:14:35.679Z,57352.91
2023-08-06T03:17:02.440Z,57334.09
2023-08-06T03:19:29.152Z,57321.59
2023-08-06T03:21:56.024Z,57327.84
2023-08-06T03:24:22.924Z,57340.38
2023-08-06T03:26:49.606Z,57359.16
2023-08-06T03:29:16.373Z,57311.16
2023-08-06T03:31:43.056Z,57348.72
2023-08-06T03:34:09.767Z,57365.41
2023-08-06T03:36:36.509Z,57313.22
2023-08-06T03:39:03.294Z,57357.06
2023-08-06T03:41:29.978Z,57365.41
2023-08-06T03:43:56.672Z,57325.75
2023-08-06T03:46:23.364Z,57317.41
2023-08-06T03:48:50.114Z,57325.75
2023-08-06T03:51:16.887Z,57323.66
2023-08-06T03:53:43.633Z,57319.50
2023-08-06T03:56:10.352Z,57361.25
2023-08-06T03:58:37.102Z,57323.66
2023-08-06T04:01:05.053Z,57371.69
2023-08-06T04:03:31.917Z,57286.09
2023-08-06T04:05:58.711Z,57342.47
2023-08-06T04:08:25.487Z,57313.22
2023-08-06T04:10:55.551Z,57348.72
2023-08-06T04:13:22.465Z,57323.66
2023-08-06T04:15:49.666Z,57309.06
2023-08-06T04:18:16.660Z,57313.22
2023-08-06T04:20:47.486Z,57321.59
2023-08-06T04:23:14.716Z,57332.03
2023-08-06T04:25:41.404Z,57348.72
2023-08-06T04:28:08.765Z,57300.72
2023-08-06T04:30:35.603Z,57334.09
2023-08-06T04:33:02.398Z,57338.28
2023-08-06T04:35:29.273Z,57302.81
2023-08-06T04:37:55.942Z,57354.97
2023-08-06T04:40:22.889Z,57363.31
2023-08-06T04:42:49.649Z,57315.31
2023-08-06T04:45:16.503Z,57281.94
2023-08-06T04:47:43.701Z,57359.16
2023-08-06T04:50:10.603Z,57367.50
2023-08-06T04:52:38.903Z,57342.47
2023-08-06T04:55:07.276Z,57315.31
2023-08-06T04:57:34.101Z,57315.31
2023-08-06T05:00:00.926Z,57365.41
2023-08-06T05:02:27.754Z,57354.97
2023-08-06T05:04:54.522Z,57315.31
2023-08-06T05:07:21.241Z,57298.63
2023-08-06T05:09:47.974Z,57325.75
2023-08-06T05:12:14.662Z,57309.06
2023-08-06T05:14:41.422Z,57317.41
2023-08-06T05:17:08.062Z,57309.06
2023-08-06T05:19:34.785Z,57271.50
2023-08-06T05:22:02.710Z,57261.06
2023-08-06T05:24:29.396Z,57223.50
2023-08-06T05:26:56.099Z,57254.78
2023-08-06T05:29:22.724Z,57246.44
2023-08-06T05:31:49.540Z,57250.63
2023-08-06T05:34:16.422Z,57261.06
2023-08-06T05:36:43.248Z,57229.75
2023-08-06T05:39:09.992Z,57192.19
2023-08-06T05:41:36.683Z,57213.06
2023-08-06T05:44:04.608Z,57225.56
2023-08-06T05:46:32.363Z,57258.97
2023-08-06T05:48:59.034Z,57221.41
2023-08-06T05:51:27.694Z,57325.75
2023-08-06T05:53:54.419Z,57238.09
2023-08-06T05:56:21.210Z,57254.78
2023-08-06T05:58:48.790Z,57246.44
2023-08-06T06:01:15.642Z,57238.09
2023-08-06T06:03:42.688Z,57190.09
2023-08-06T06:06:09.441Z,57215.13
2023-08-06T06:08:36.240Z,57171.31
2023-08-06T06:11:02.918Z,57202.63
2023-08-06T06:13:29.571Z,57236.00
2023-08-06T06:15:57.408Z,57198.44
2023-08-06T06:18:24.436Z,57227.66
2023-08-06T06:20:51.237Z,57198.44
2023-08-06T06:23:18.023Z,57192.19
2023-08-06T06:25:47.891Z,57221.41
2023-08-06T06:28:14.646Z,57200.53
2023-08-06T06:30:44.189Z,57223.50
2023-08-06T06:33:11.063Z,57269.41
2023-08-06T06:35:38.403Z,57238.09
2023-08-06T06:38:05.246Z,57309.06
2023-08-06T06:40:31.921Z,57275.66
2023-08-06T06:42:58.658Z,57290.28
2023-08-06T06:45:25.444Z,57311.16
2023-08-06T06:47:52.245Z,57300.72
2023-08-06T06:50:18.933Z,57334.09
2023-08-06T06:52:45.615Z,57329.94
2023-08-06T06:55:12.343Z,57332.03
2023-08-06T06:57:39.054Z,57319.50
2023-08-06T07:00:06.940Z,57321.59
2023-08-06T07:02:33.856Z,57302.81
2023-08-06T07:05:00.649Z,57292.38
2023-08-06T07:07:27.338Z,57279.84
2023-08-06T07:09:54.026Z,57288.19
2023-08-06T07:12:20.809Z,57317.41
2023-08-06T07:14:47.485Z,57277.75
2023-08-06T07:17:14.221Z,57279.84
2023-08-06T07:19:40.977Z,57269.41
2023-08-06T07:22:08.611Z,57248.53
2023-08-06T07:24:35.276Z,57221.41
2023-08-06T07:27:02.452Z,57229.75
2023-08-06T07:29:29.186Z,57221.41
2023-08-06T07:31:56.741Z,57229.75
2023-08-06T07:34:23.508Z,57246.44
2023-08-06T07:36:50.253Z,57275.66
2023-08-06T07:39:18.038Z,57192.19
2023-08-06T07:41:46.920Z,57200.53
2023-08-06T07:44:13.669Z,57219.31
2023-08-06T07:46:40.537Z,57202.63
2023-08-06T07:49:07.392Z,57227.66
2023-08-06T07:51:34.038Z,57202.63
2023-08-06T07:54:00.769Z,57200.53
2023-08-06T07:56:27.490Z,57179.66
2023-08-06T07:58:54.117Z,57233.91
2023-08-06T08:01:20.822Z,57217.22
2023-08-06T08:03:47.573Z,57198.44
2023-08-06T08:06:14.328Z,57250.63
2023-08-06T08:08:41.048Z,57217.22
2023-08-06T08:11:07.910Z,57227.66
2023-08-06T08:13:35.491Z,57279.84
2023-08-06T08:16:02.729Z,57279.84
2023-08-06T08:18:29.664Z,57256.88
2023-08-06T08:20:56.390Z,57258.97
2023-08-06T08:23:23.147Z,57254.78
2023-08-06T08:25:49.912Z,57265.22
2023-08-06T08:28:16.971Z,57288.19
2023-08-06T08:30:43.816Z,57302.81
2023-08-06T08:33:10.593Z,57321.59
2023-08-06T08:35:38.676Z,57281.94
2023-08-06T08:38:05.620Z,57327.84
2023-08-06T08:40:34.204Z,57294.44
2023-08-06T08:43:01.451Z,57298.63
2023-08-06T08:45:30.843Z,57286.09
2023-08-06T08:47:57.753Z,57292.38
2023-08-06T08:50:24.500Z,57271.50
2023-08-06T08:52:52.222Z,57306.97
2023-08-06T08:55:19.457Z,57336.19
2023-08-06T08:57:46.332Z,57311.16
2023-08-06T09:00:15.295Z,57250.63
2023-08-06T09:02:43.156Z,57300.72
2023-08-06T09:05:11.869Z,57302.81
2023-08-06T09:07:44.388Z,57273.56
2023-08-06T09:10:14.771Z,57281.94
2023-08-06T09:12:42.503Z,57294.44
2023-08-06T09:15:09.680Z,57321.59
2023-08-06T09:17:37.817Z,57321.59
2023-08-06T09:20:15.339Z,57294.44
2023-08-06T09:22:42.635Z,57306.97
2023-08-06T09:25:14.701Z,57300.72
2023-08-06T09:27:41.447Z,57300.72
2023-08-06T09:30:09.039Z,57244.34
2023-08-06T09:32:49.948Z,57292.38
2023-08-06T09:35:18.149Z,57265.22
2023-08-06T09:37:47.022Z,57321.59
2023-08-06T09:40:32.245Z,57273.56
2023-08-06T09:43:00.034Z,57292.38
2023-08-06T09:45:32.186Z,57309.06
2023-08-06T09:47:59.923Z,57309.06
2023-08-06T09:50:34.512Z,57227.66
2023-08-06T09:53:02.358Z,57296.53
2023-08-06T09:55:29.340Z,57279.84
2023-08-06T09:57:56.972Z,57279.84
2023-08-06T10:00:24.446Z,57269.41
2023-08-06T10:02:54.799Z,57315.31
2023-08-06T10:05:22.047Z,57279.84
2023-08-06T10:07:50.307Z,57300.72
2023-08-06T10:10:17.223Z,57306.97
2023-08-06T10:12:49.598Z,57286.09
2023-08-06T10:15:22.483Z,57317.41
2023-08-06T10:17:53.003Z,57323.66
2023-08-06T10:20:22.224Z,57313.22
2023-08-06T10:23:00.933Z,57277.75
2023-08-06T10:25:27.559Z,57352.91
2023-08-06T10:27:56.174Z,57313.22
2023-08-06T10:30:31.613Z,57258.97
2023-08-06T10:33:03.270Z,57317.41
2023-08-06T10:35:45.529Z,57327.84
2023-08-06T10:38:14.285Z,57302.81
2023-08-06T10:40:43.219Z,57329.94
2023-08-06T10:43:26.853Z,57298.63
2023-08-06T10:45:53.641Z,57298.63
2023-08-06T10:48:35.812Z,57313.22
2023-08-06T10:51:05.945Z,57321.59
2023-08-06T10:53:35.724Z,57319.50
2023-08-06T10:56:03.587Z,57317.41
2023-08-06T10:58:34.620Z,57321.59
2023-08-06T11:01:01.689Z,57327.84
2023-08-06T11:03:29.472Z,57277.75
2023-08-06T11:05:56.405Z,57340.38
2023-08-06T11:08:30.761Z,57292.38
2023-08-06T11:11:10.241Z,57304.88
2023-08-06T11:13:36.998Z,57317.41
2023-08-06T11:16:03.967Z,57315.31
2023-08-06T11:18:30.908Z,57325.75
2023-08-06T11:21:00.566Z,57323.66
2023-08-06T11:23:30.826Z,57306.97
2023-08-06T11:25:58.112Z,57300.72
2023-08-06T11:28:25.644Z,57332.03
2023-08-06T11:30:53.107Z,57327.84
2023-08-06T11:33:26.760Z,57298.63
2023-08-06T11:35:57.920Z,57311.16
2023-08-06T11:38:29.665Z,57315.31
2023-08-06T11:40:56.518Z,57311.16
2023-08-06T11:43:23.758Z,57357.06
2023-08-06T11:45:52.139Z,57309.06
2023-08-06T11:48:19.474Z,57317.41
2023-08-06T11:50:46.522Z,57284.00
2023-08-06T11:53:15.521Z,57275.66
2023-08-06T11:55:42.733Z,57271.50
2023-08-06T11:58:11.136Z,57277.75
2023-08-06T12:00:37.909Z,57263.16
2023-08-06T12:03:06.547Z,57281.94
2023-08-06T12:05:39.502Z,57267.31
2023-08-06T12:08:06.207Z,57317.41
2023-08-06T12:10:33.587Z,57317.41
2023-08-06T12:13:01.580Z,57300.72
2023-08-06T12:15:28.904Z,57275.66
2023-08-06T12:17:56.460Z,57300.72
2023-08-06T12:20:23.388Z,57292.38
2023-08-06T12:22:50.703Z,57306.97
2023-08-06T12:25:17.491Z,57300.72
2023-08-06T12:27:45.884Z,57296.53
2023-08-06T12:30:13.757Z,57313.22
2023-08-06T12:32:40.929Z,57315.31
2023-08-06T12:35:08.887Z,57325.75
2023-08-06T12:37:36.211Z,57319.50
2023-08-06T12:40:23.535Z,57288.19
2023-08-06T12:42:51.880Z,57281.94
2023-08-06T12:45:22.444Z,57290.28
2023-08-06T12:47:50.811Z,57267.31
2023-08-06T12:50:18.709Z,57273.56
2023-08-06T12:52:45.969Z,57290.28
2023-08-06T12:55:12.651Z,57284.00
2023-08-06T12:57:51.458Z,57317.41
2023-08-06T13:00:24.052Z,57317.41
2023-08-06T13:02:51.190Z,57252.72
2023-08-06T13:05:18.099Z,57313.22
2023-08-06T13:07:44.893Z,57275.66
2023-08-06T13:10:11.605Z,57294.44
2023-08-06T13:12:38.291Z,57300.72
2023-08-06T13:15:05.460Z,57306.97
2023-08-06T13:17:32.301Z,57284.00
2023-08-06T13:19:59.124Z,57252.72
2023-08-06T13:22:25.789Z,57309.06
2023-08-06T13:24:52.506Z,57317.41
2023-08-06T13:27:19.233Z,57263.16
2023-08-06T13:29:45.940Z,57304.88
2023-08-06T13:32:12.753Z,57334.09
2023-08-06T13:34:39.454Z,57290.28
2023-08-06T13:37:06.175Z,57273.56
2023-08-06T13:39:33.041Z,57281.94
2023-08-06T13:41:59.677Z,57288.19
2023-08-06T13:44:26.359Z,57258.97
2023-08-06T13:46:53.466Z,57261.06
2023-08-06T13:49:20.364Z,57288.19
2023-08-06T13:51:47.026Z,57269.41
2023-08-06T13:54:13.730Z,57292.38
2023-08-06T13:56:40.487Z,57292.38
2023-08-06T13:59:07.462Z,57290.28
2023-08-06T14:01:48.030Z,57279.84
2023-08-06T14:04:17.966Z,57267.31
2023-08-06T14:06:44.745Z,57317.41
2023-08-06T14:09:13.662Z,57309.06
2023-08-06T14:11:40.425Z,57332.03
2023-08-06T14:14:07.098Z,57277.75
2023-08-06T14:16:33.756Z,57329.94
2023-08-06T14:19:00.409Z,57292.38
2023-08-06T14:21:27.102Z,57304.88
2023-08-06T14:23:53.791Z,57290.28
2023-08-06T14:26:20.573Z,57292.38
2023-08-06T14:28:47.928Z,57327.84
2023-08-06T14:31:14.760Z,57313.22
2023-08-06T14:33:41.586Z,57271.50
2023-08-06T14:36:08.269Z,57311.16
2023-08-06T14:38:40.556Z,57284.00
2023-08-06T14:41:13.431Z,57334.09
2023-08-06T14:43:40.269Z,57250.63
2023-08-06T14:46:06.939Z,57296.53
2023-08-06T14:48:34.232Z,57306.97
2023-08-06T14:51:00.946Z,57321.59
2023-08-06T14:53:27.941Z,57315.31
2023-08-06T14:55:55.347Z,57325.75
2023-08-06T14:58:22.036Z,57300.72
2023-08-06T15:00:48.759Z,57319.50
2023-08-06T15:03:15.514Z,57284.00
2023-08-06T15:05:46.017Z,57254.78
2023-08-06T15:08:12.820Z,57288.19
2023-08-06T15:10:39.698Z,57329.94
2023-08-06T15:13:07.502Z,57321.59
2023-08-06T15:15:34.147Z,57313.22
2023-08-06T15:18:01.098Z,57292.38
2023-08-06T15:20:27.932Z,57313.22
2023-08-06T15:22:54.641Z,57319.50
2023-08-06T15:25:21.379Z,57267.31
2023-08-06T15:27:48.208Z,57311.16
2023-08-06T15:30:15.015Z,57306.97
2023-08-06T15:32:45.780Z,57292.38
2023-08-06T15:35:13.136Z,57292.38
2023-08-06T15:37:40.023Z,57321.59
2023-08-06T15:40:10.689Z,57292.38
2023-08-06T15:42:37.412Z,57298.63
2023-08-06T15:45:04.632Z,57273.56
2023-08-06T15:47:31.404Z,57325.75
2023-08-06T15:49:58.185Z,57313.22
2023-08-06T15:52:24.866Z,57275.66
2023-08-06T15:54:51.578Z,57288.19
2023-08-06T15:57:18.294Z,57311.16
2023-08-06T15:59:45.000Z,57288.19
2023-08-06T16:02:11.892Z,57319.50
2023-08-06T16:04:38.697Z,57329.94
2023-08-06T16:07:05.395Z,57284.00
2023-08-06T16:09:32.080Z,57273.56
2023-08-06T16:11:58.788Z,57386.28
2023-08-06T16:14:25.511Z,57252.72
2023-08-06T16:16:52.427Z,57327.84
2023-08-06T16:19:19.409Z,57300.72
2023-08-06T16:21:46.145Z,57321.59
2023-08-06T16:24:12.947Z,57315.31
2023-08-06T16:26:39.799Z,57332.03
2023-08-06T16:29:06.550Z,57300.72
2023-08-06T16:31:33.296Z,57313.22
2023-08-06T16:34:00.093Z,57309.06
2023-08-06T16:36:27.131Z,57306.97
2023-08-06T16:38:54.096Z,57284.00
2023-08-06T16:41:20.844Z,57317.41
2023-08-06T16:43:47.553Z,57269.41
2023-08-06T16:46:14.342Z,57279.84
2023-08-06T16:48:41.276Z,57306.97
2023-08-06T16:51:10.401Z,57286.09
2023-08-06T16:53:37.107Z,57290.28
2023-08-06T16:56:03.986Z,57317.41
2023-08-06T16:58:30.710Z,57329.94
2023-08-06T17:01:01.131Z,57327.84
2023-08-06T17:03:27.987Z,57348.72
2023-08-06T17:05:54.814Z,57256.88
2023-08-06T17:08:21.494Z,57321.59
2023-08-06T17:10:48.256Z,57294.44
2023-08-06T17:13:20.532Z,57265.22
2023-08-06T17:15:48.520Z,57300.72
2023-08-06T17:18:18.817Z,57311.16
2023-08-06T17:20:47.772Z,57315.31
2023-08-06T17:23:15.332Z,57317.41
2023-08-06T17:25:46.096Z,57298.63
2023-08-06T17:28:13.843Z,57338.28
2023-08-06T17:30:41.996Z,57296.53
2023-08-06T17:33:09.044Z,57338.28
2023-08-06T17:35:36.351Z,57271.50
2023-08-06T17:38:05.224Z,57323.66
2023-08-06T17:40:31.976Z,57315.31
2023-08-06T17:42:58.724Z,57350.81
2023-08-06T17:45:25.388Z,57350.81
2023-08-06T17:47:52.768Z,57288.19
2023-08-06T17:50:19.929Z,57296.53
2023-08-06T17:52:47.393Z,57302.81
2023-08-06T17:55:14.763Z,57300.72
2023-08-06T17:57:41.612Z,57334.09
2023-08-06T18:00:09.285Z,57319.50
2023-08-06T18:02:36.133Z,57350.81
2023-08-06T18:05:03.117Z,57302.81
2023-08-06T18:07:30.040Z,57329.94
2023-08-06T18:09:56.839Z,57325.75
2023-08-06T18:12:23.578Z,57325.75
2023-08-06T18:14:51.304Z,57327.84
2023-08-06T18:17:18.493Z,57298.63
2023-08-06T18:19:45.280Z,57296.53
2023-08-06T18:22:11.965Z,57329.94
2023-08-06T18:24:38.723Z,57317.41
2023-08-06T18:27:05.682Z,57309.06
2023-08-06T18:29:32.413Z,57329.94
2023-08-06T18:31:59.115Z,57302.81
2023-08-06T18:34:25.847Z,57290.28
2023-08-06T18:36:52.695Z,57311.16
2023-08-06T18:39:19.832Z,57338.28
2023-08-06T18:41:47.719Z,57354.97
2023-08-06T18:44:14.482Z,57286.09
2023-08-06T18:46:41.306Z,57327.84
2023-08-06T18:49:08.197Z,57336.19
2023-08-06T18:51:34.969Z,57363.31
2023-08-06T18:54:01.756Z,57315.31
2023-08-06T18:56:28.394Z,57315.31
2023-08-06T18:58:55.314Z,57315.31
2023-08-06T19:01:22.139Z,57365.41
2023-08-06T19:03:49.458Z,57321.59
2023-08-06T19:06:16.564Z,57361.25
2023-08-06T19:08:43.252Z,57336.19
2023-08-06T19:11:09.920Z,57357.06
2023-08-06T19:13:36.773Z,57342.47
2023-08-06T19:16:03.907Z,57354.97
2023-08-06T19:18:30.770Z,57327.84
2023-08-06T19:21:00.307Z,57346.63
2023-08-06T19:23:28.995Z,57311.16
2023-08-06T19:25:56.442Z,57334.09
2023-08-06T19:28:23.287Z,57338.28
2023-08-06T19:30:50.600Z,57342.47
2023-08-06T19:33:18.211Z,57344.53
2023-08-06T19:35:51.275Z,57361.25
2023-08-06T19:38:20.094Z,57359.16
2023-08-06T19:40:47.955Z,57350.81
2023-08-06T19:43:15.687Z,57346.63
2023-08-06T19:45:49.221Z,57315.31
2023-08-06T19:48:16.442Z,57321.59
2023-08-06T19:50:43.249Z,57384.19
2023-08-06T19:53:09.992Z,57384.19
2023-08-06T19:55:41.089Z,57363.31
2023-08-06T19:58:08.690Z,57382.13
2023-08-06T20:00:35.643Z,57340.38
2023-08-06T20:03:02.805Z,57361.25
2023-08-06T20:05:29.632Z,57344.53
2023-08-06T20:07:57.068Z,57329.94
2023-08-06T20:10:23.934Z,57357.06
2023-08-06T20:12:50.607Z,57359.16
2023-08-06T20:15:17.423Z,57388.38
2023-08-06T20:17:44.143Z,57377.94
2023-08-06T20:20:11.955Z,57409.25
2023-08-06T20:22:38.803Z,57342.47
2023-08-06T20:25:06.070Z,57346.63
2023-08-06T20:27:32.780Z,57348.72
2023-08-06T20:29:59.488Z,57388.38
2023-08-06T20:32:28.405Z,57373.75
2023-08-06T20:34:55.272Z,57388.38
2023-08-06T20:37:22.054Z,57371.69
2023-08-06T20:39:48.847Z,57367.50
2023-08-06T20:42:15.625Z,57396.72
2023-08-06T20:44:42.382Z,57336.19
2023-08-06T20:47:09.186Z,57367.50
2023-08-06T20:49:35.857Z,57375.84
2023-08-06T20:52:04.862Z,57348.72
2023-08-06T20:54:32.632Z,57354.97
2023-08-06T20:56:59.435Z,57359.16
2023-08-06T20:59:26.190Z,57354.97
2023-08-06T21:01:53.225Z,57375.84
2023-08-06T21:04:20.211Z,57352.91
2023-08-06T21:06:46.958Z,57338.28
2023-08-06T21:09:13.638Z,57365.41
2023-08-06T21:11:40.454Z,57352.91
2023-08-06T21:14:07.151Z,57346.63
2023-08-06T21:16:34.101Z,57371.69
2023-08-06T21:19:02.806Z,57373.75
2023-08-06T21:21:30.926Z,57363.31
2023-08-06T21:23:57.623Z,57386.28
2023-08-06T21:26:24.434Z,57390.47
2023-08-06T21:28:51.108Z,57352.91
2023-08-06T21:31:17.833Z,57361.25
2023-08-06T21:33:46.347Z,57371.69
2023-08-06T21:36:13.137Z,57357.06
2023-08-06T21:38:41.057Z,57375.84
2023-08-06T21:41:13.186Z,57334.09
2023-08-06T21:43:43.807Z,57363.31
2023-08-06T21:46:12.952Z,57329.94
2023-08-06T21:48:41.796Z,57352.91
2023-08-06T21:51:09.771Z,57382.13
2023-08-06T21:53:38.321Z,57403.00
2023-08-06T21:56:07.347Z,57354.97
2023-08-06T21:58:34.513Z,57373.75
2023-08-06T22:01:01.208Z,57329.94
2023-08-06T22:03:28.010Z,57359.16
2023-08-06T22:05:55.191Z,57386.28
2023-08-06T22:08:21.895Z,57375.84
2023-08-06T22:10:49.815Z,57388.38
2023-08-06T22:13:16.640Z,57388.38
2023-08-06T22:15:43.361Z,57348.72
2023-08-06T22:18:10.302Z,57384.19
2023-08-06T22:20:37.135Z,57369.59
2023-08-06T22:23:03.955Z,57377.94
2023-08-06T22:25:31.075Z,57325.75
2023-08-06T22:27:58.966Z,57350.81
2023-08-06T22:30:25.968Z,57352.91
2023-08-06T22:32:52.857Z,57363.31
2023-08-06T22:35:19.932Z,57377.94
2023-08-06T22:37:50.424Z,57361.25
2023-08-06T22:40:18.233Z,57363.31
2023-08-06T22:42:45.739Z,57361.25
2023-08-06T22:45:13.223Z,57363.31
2023-08-06T22:47:40.436Z,57367.50
2023-08-06T22:50:08.515Z,57354.97
2023-08-06T22:52:35.827Z,57365.41
2023-08-06T22:55:15.088Z,57348.72
2023-08-06T22:57:50.684Z,57377.94
2023-08-06T23:00:17.578Z,57359.16
2023-08-06T23:02:55.015Z,57363.31
2023-08-06T23:05:30.255Z,57336.19
2023-08-06T23:07:57.036Z,57350.81
2023-08-06T23:10:24.225Z,57327.84
2023-08-06T23:12:51.169Z,57367.50
2023-08-06T23:15:17.870Z,57340.38
2023-08-06T23:17:44.579Z,57386.28
2023-08-06T23:20:11.464Z,57369.59
2023-08-06T23:22:38.243Z,57340.38
2023-08-06T23:25:05.496Z,57377.94
2023-08-06T23:27:32.185Z,57384.19
2023-08-06T23:29:58.842Z,57357.06
2023-08-06T23:32:25.587Z,57340.38
2023-08-06T23:34:53.922Z,57332.03
2023-08-06T23:37:21.309Z,57382.13
2023-08-06T23:39:48.159Z,57369.59
2023-08-06T23:42:14.879Z,57369.59
2023-08-06T23:44:41.682Z,57354.97
2023-08-06T23:47:08.326Z,57357.06
2023-08-06T23:49:35.080Z,57340.38
2023-08-06T23:52:01.829Z,57367.50
2023-08-06T23:54:28.498Z,57394.63
2023-08-06T23:56:55.290Z,57386.28
2023-08-06T23:59:21.995Z,57354.97
